Time;durP1;ratioP1;P1;durP2;ratioP2;P2;SDS_P1;SDS_P2;PMS_P1;PMS_P2;Temp;Humidity;BMP_temperature;BMP_pressure;BME280_temperature;BME280_humidity;BME280_pressure;Samples;Min_cycle;Max_cycle;Signal;HPM_P1;HPM_P2
2021/04/11 00:00:47;;;;;;;36.93;26.50;;;7.30;99.90;;;;;;5041607;28;20214;-81
2021/04/11 00:03:17;;;;;;;35.27;26.30;;;7.30;99.90;;;;;;5047594;28;20591;-81
2021/04/11 00:05:44;;;;;;;34.07;26.27;;;7.30;99.90;;;;;;5048203;28;20651;-82
2021/04/11 00:08:13;;;;;;;35.40;24.97;;;7.30;99.90;;;;;;5053628;28;20210;-81
2021/04/11 00:10:42;;;;;;;32.63;24.40;;;7.30;99.90;;;;;;5051098;28;20199;-81
2021/04/11 00:13:14;;;;;;;34.30;25.50;;;7.40;99.90;;;;;;5049213;28;20231;-81
2021/04/11 00:15:40;;;;;;;36.77;26.57;;;7.30;99.90;;;;;;5051371;28;20282;-81
2021/04/11 00:18:06;;;;;;;33.77;25.43;;;7.40;99.90;;;;;;5045619;28;20287;-81
2021/04/11 00:20:33;;;;;;;36.50;26.20;;;7.40;99.90;;;;;;5056131;28;20203;-81
2021/04/11 00:23:00;;;;;;;35.23;26.40;;;7.40;99.90;;;;;;5043747;28;20202;-81
2021/04/11 00:25:28;;;;;;;35.87;25.63;;;7.40;99.90;;;;;;5044161;28;20719;-81
2021/04/11 00:27:54;;;;;;;35.07;25.97;;;7.40;99.90;;;;;;5046587;28;20223;-81
2021/04/11 00:30:22;;;;;;;33.50;25.60;;;7.40;99.90;;;;;;5052987;28;20231;-80
2021/04/11 00:32:49;;;;;;;35.67;25.73;;;7.40;99.90;;;;;;5054702;28;20214;-81
2021/04/11 00:35:16;;;;;;;33.27;24.90;;;7.40;99.90;;;;;;5048450;28;20211;-81
2021/04/11 00:37:43;;;;;;;32.03;25.23;;;7.40;99.90;;;;;;5049769;28;20290;-81
2021/04/11 00:40:15;;;;;;;34.27;24.53;;;7.40;99.90;;;;;;5042866;28;20229;-81
2021/04/11 00:42:43;;;;;;;33.20;24.53;;;7.40;99.90;;;;;;5053892;28;20236;-81
2021/04/11 00:45:17;;;;;;;31.83;23.87;;;7.60;99.90;;;;;;5046053;28;20203;-81
2021/04/11 00:47:43;;;;;;;31.50;24.03;;;7.50;99.90;;;;;;5056477;28;20681;-81
2021/04/11 00:50:13;;;;;;;32.77;23.80;;;7.50;99.90;;;;;;5050475;28;20290;-81
2021/04/11 00:52:40;;;;;;;32.80;23.93;;;7.50;99.90;;;;;;5047991;28;20226;-81
2021/04/11 00:55:08;;;;;;;33.83;24.23;;;7.50;99.90;;;;;;5051202;28;20203;-81
2021/04/11 00:57:36;;;;;;;33.73;23.77;;;7.50;99.90;;;;;;5045236;28;20250;-81
2021/04/11 01:00:05;;;;;;;37.63;26.33;;;7.50;99.90;;;;;;5042018;28;20206;-81
2021/04/11 01:02:31;;;;;;;32.80;23.57;;;7.50;99.90;;;;;;5049187;28;20195;-81
2021/04/11 01:04:57;;;;;;;31.37;23.10;;;7.50;99.90;;;;;;5051712;28;20318;-81
2021/04/11 01:07:25;;;;;;;33.20;24.13;;;7.40;99.90;;;;;;5048435;28;20672;-80
2021/04/11 01:09:51;;;;;;;34.23;25.43;;;7.50;99.90;;;;;;5038831;28;20633;-81
2021/04/11 01:12:20;;;;;;;33.40;24.67;;;7.50;99.90;;;;;;5041637;28;20223;-80
2021/04/11 01:14:48;;;;;;;32.83;24.07;;;7.30;99.90;;;;;;5050645;28;20253;-81
2021/04/11 01:17:18;;;;;;;32.13;22.40;;;7.40;99.90;;;;;;5052260;28;20192;-80
2021/04/11 01:19:46;;;;;;;33.87;23.70;;;7.40;99.90;;;;;;5035624;28;20204;-81
2021/04/11 01:22:19;;;;;;;32.93;23.23;;;7.40;99.90;;;;;;5052476;28;20234;-81
2021/04/11 01:24:48;;;;;;;32.90;24.37;;;7.30;99.90;;;;;;5054713;28;20725;-81
2021/04/11 01:27:19;;;;;;;28.60;21.43;;;7.40;99.90;;;;;;5046878;28;20209;-81
2021/04/11 01:29:46;;;;;;;30.63;22.17;;;7.40;99.90;;;;;;5044591;28;20217;-81
2021/04/11 01:32:13;;;;;;;29.73;21.97;;;7.40;99.90;;;;;;5041390;28;20306;-81
2021/04/11 01:34:42;;;;;;;31.10;23.03;;;7.40;99.90;;;;;;5047803;28;20299;-81
2021/04/11 01:37:11;;;;;;;29.83;21.87;;;7.50;99.90;;;;;;5042758;28;20226;-81
2021/04/11 01:39:41;;;;;;;31.57;22.70;;;7.40;99.90;;;;;;5045484;28;20207;-81
2021/04/11 01:42:09;;;;;;;30.53;22.53;;;7.50;99.90;;;;;;5046666;28;20199;-81
2021/04/11 01:44:39;;;;;;;35.17;23.50;;;7.50;99.90;;;;;;5054432;28;20754;-81
2021/04/11 01:47:06;;;;;;;30.73;22.73;;;7.60;99.90;;;;;;5047090;28;20202;-81
2021/04/11 01:49:33;;;;;;;28.87;21.30;;;7.70;99.90;;;;;;5053427;28;20203;-80
2021/04/11 01:52:03;;;;;;;30.37;21.53;;;8.00;99.90;;;;;;5054213;28;20227;-81
2021/04/11 01:54:32;;;;;;;32.80;22.10;;;8.20;99.90;;;;;;5050040;28;20230;-81
2021/04/11 01:56:59;;;;;;;31.53;24.33;;;8.30;99.90;;;;;;5049876;28;20294;-80
2021/04/11 01:59:28;;;;;;;33.80;23.90;;;8.50;99.90;;;;;;5053957;28;20279;-81
2021/04/11 02:01:55;;;;;;;29.80;23.60;;;8.50;99.90;;;;;;5043564;28;20242;-81
2021/04/11 02:04:23;;;;;;;27.67;21.47;;;8.50;99.90;;;;;;5048865;28;20237;-81
2021/04/11 02:06:52;;;;;;;28.33;20.50;;;8.50;99.90;;;;;;5050405;28;20218;-81
2021/04/11 02:09:20;;;;;;;27.77;19.63;;;8.60;99.90;;;;;;5054173;28;20246;-81
2021/04/11 02:11:48;;;;;;;26.93;19.00;;;8.60;99.90;;;;;;5051913;28;20268;-81
2021/04/11 02:14:14;;;;;;;30.10;21.53;;;8.70;99.90;;;;;;5051087;28;20253;-81
2021/04/11 02:16:42;;;;;;;30.27;20.40;;;8.70;99.90;;;;;;5052512;28;20243;-81
2021/04/11 02:19:16;;;;;;;28.20;20.03;;;8.70;99.90;;;;;;5032468;28;20263;-81
2021/04/11 02:21:47;;;;;;;28.33;19.50;;;8.70;99.90;;;;;;5028643;28;20203;-80
2021/04/11 02:24:14;;;;;;;26.87;18.57;;;8.60;99.90;;;;;;5030540;28;20893;-81
2021/04/11 02:26:42;;;;;;;27.57;19.87;;;8.60;99.90;;;;;;5034304;28;20294;-81
2021/04/11 02:29:11;;;;;;;28.53;19.47;;;8.60;99.90;;;;;;5033058;28;20263;-81
2021/04/11 02:31:38;;;;;;;29.03;20.13;;;8.50;99.90;;;;;;5033527;28;20211;-81
2021/04/11 02:34:09;;;;;;;30.93;20.73;;;8.50;99.90;;;;;;5042608;28;20735;-80
2021/04/11 02:36:38;;;;;;;28.93;19.67;;;8.50;99.90;;;;;;5042485;28;20663;-80
2021/04/11 02:39:11;;;;;;;27.20;19.17;;;8.40;99.90;;;;;;5045357;28;20211;-80
2021/04/11 02:41:39;;;;;;;28.70;20.73;;;8.40;99.90;;;;;;5043038;28;20869;-80
2021/04/11 02:44:06;;;;;;;27.40;20.50;;;8.40;99.90;;;;;;5043594;28;20763;-80
2021/04/11 02:46:34;;;;;;;28.17;20.17;;;8.40;99.90;;;;;;5040649;28;20229;-80
2021/04/11 02:49:00;;;;;;;29.57;20.73;;;8.50;99.90;;;;;;5043663;28;20586;-80
2021/04/11 02:51:30;;;;;;;28.10;19.27;;;8.60;99.90;;;;;;5045541;28;20394;-80
2021/04/11 02:53:59;;;;;;;31.13;20.23;;;8.50;99.90;;;;;;5039531;28;20318;-80
2021/04/11 02:56:26;;;;;;;29.73;21.50;;;8.50;99.90;;;;;;5045214;28;20257;-80
2021/04/11 02:58:53;;;;;;;28.77;20.53;;;8.60;99.90;;;;;;5046090;28;20229;-80
2021/04/11 03:01:23;;;;;;;27.80;20.50;;;8.60;99.90;;;;;;5043745;28;20207;-80
2021/04/11 03:03:50;;;;;;;29.33;20.87;;;8.60;99.90;;;;;;5040741;28;20226;-80
2021/04/11 03:06:20;;;;;;;29.30;21.87;;;8.70;99.90;;;;;;5048528;28;20272;-80
2021/04/11 03:08:50;;;;;;;30.27;21.13;;;8.60;99.90;;;;;;5050823;28;20404;-80
2021/04/11 03:11:24;;;;;;;27.87;19.30;;;8.60;99.90;;;;;;5050340;28;20211;-80
2021/04/11 03:13:51;;;;;;;31.43;22.77;;;8.60;99.90;;;;;;5046757;28;20228;-80
2021/04/11 03:16:17;;;;;;;30.53;22.17;;;8.60;99.90;;;;;;5046567;28;20560;-80
2021/04/11 03:18:44;;;;;;;29.10;20.53;;;8.60;99.90;;;;;;5035894;28;20214;-80
2021/04/11 03:21:11;;;;;;;30.60;21.50;;;8.70;99.90;;;;;;5049948;28;20316;-80
2021/04/11 03:23:38;;;;;;;31.33;21.60;;;8.70;99.90;;;;;;5052026;28;20311;-80
2021/04/11 03:26:17;;;;;;;31.33;21.60;;;8.60;99.90;;;;;;5051097;28;20240;-81
2021/04/11 03:28:47;;;;;;;29.40;21.87;;;8.70;99.90;;;;;;5045017;28;20248;-81
2021/04/11 03:31:19;;;;;;;35.77;28.13;;;8.70;99.90;;;;;;5046644;28;20663;-81
2021/04/11 03:33:49;;;;;;;31.93;23.83;;;8.70;99.90;;;;;;5051387;28;20215;-81
2021/04/11 03:36:18;;;;;;;30.30;24.20;;;8.70;99.90;;;;;;5052679;28;20257;-81
2021/04/11 03:38:46;;;;;;;31.47;21.80;;;8.70;99.90;;;;;;5050724;28;20505;-81
2021/04/11 03:41:16;;;;;;;31.70;24.20;;;8.70;99.90;;;;;;5052637;28;20211;-81
2021/04/11 03:43:46;;;;;;;38.83;33.40;;;8.60;99.90;;;;;;5054453;28;20253;-81
2021/04/11 03:46:18;;;;;;;34.63;27.20;;;8.60;99.90;;;;;;5049215;28;20282;-81
2021/04/11 03:48:50;;;;;;;35.70;28.30;;;8.70;99.90;;;;;;5052633;28;20233;-81
2021/04/11 03:51:21;;;;;;;31.50;22.30;;;8.70;99.90;;;;;;5049950;28;20228;-81
2021/04/11 03:53:53;;;;;;;32.83;23.57;;;8.60;99.90;;;;;;5053477;28;20227;-81
2021/04/11 03:56:25;;;;;;;31.83;23.23;;;8.60;99.90;;;;;;5050058;28;20199;-81
2021/04/11 03:58:56;;;;;;;30.60;22.50;;;8.50;99.90;;;;;;5052105;28;20499;-81
2021/04/11 04:01:27;;;;;;;35.27;23.33;;;8.50;99.90;;;;;;5043210;28;20619;-81
2021/04/11 04:04:00;;;;;;;32.10;23.73;;;8.50;99.90;;;;;;5052623;28;20233;-81
2021/04/11 04:06:29;;;;;;;35.97;24.43;;;8.50;99.90;;;;;;5050520;28;20287;-81
2021/04/11 04:08:56;;;;;;;35.60;25.07;;;8.50;99.90;;;;;;5048171;28;20302;-81
2021/04/11 04:11:51;;;;;;;35.17;25.53;;;8.50;99.90;;;;;;5036392;28;20199;-80
2021/04/11 04:14:28;;;;;;;35.50;25.27;;;8.60;99.90;;;;;;5052680;28;20434;-80
2021/04/11 04:17:06;;;;;;;37.27;26.37;;;8.50;99.90;;;;;;5043927;28;20232;-82
2021/04/11 04:19:45;;;;;;;37.20;25.80;;;8.50;99.90;;;;;;5044796;28;20203;-82
2021/04/11 04:22:27;;;;;;;37.00;25.57;;;8.60;99.90;;;;;;5036922;28;20207;-81
2021/04/11 04:25:06;;;;;;;35.00;25.33;;;8.50;99.90;;;;;;5050915;28;20218;-81
2021/04/11 04:27:52;;;;;;;36.20;25.67;;;8.70;99.90;;;;;;5052861;28;20250;-81
2021/04/11 04:30:23;;;;;;;32.93;24.00;;;8.60;99.90;;;;;;5045942;28;20202;-81
2021/04/11 04:33:20;;;;;;;37.33;25.57;;;8.70;99.90;;;;;;5049956;28;20227;-81
2021/04/11 04:35:52;;;;;;;39.10;28.07;;;8.70;99.90;;;;;;5039744;28;20207;-81
2021/04/11 04:38:24;;;;;;;38.83;27.67;;;8.70;99.90;;;;;;5049139;28;20631;-81
2021/04/11 04:41:05;;;;;;;39.50;28.03;;;8.70;99.90;;;;;;5049281;28;20681;-80
2021/04/11 04:43:45;;;;;;;35.27;26.00;;;8.70;99.90;;;;;;5049203;28;20257;-81
2021/04/11 04:46:15;;;;;;;35.07;25.47;;;8.60;99.90;;;;;;5036550;28;20202;-81
2021/04/11 04:48:48;;;;;;;36.40;26.73;;;8.60;99.90;;;;;;5037934;28;20218;-81
2021/04/11 04:51:19;;;;;;;36.70;26.10;;;8.60;99.90;;;;;;5046520;28;20207;-81
2021/04/11 04:53:52;;;;;;;35.77;26.43;;;8.70;99.90;;;;;;5046371;28;20413;-81
2021/04/11 04:56:23;;;;;;;35.97;26.00;;;8.70;99.90;;;;;;5041825;28;20706;-81
2021/04/11 04:58:55;;;;;;;34.60;24.77;;;8.70;99.90;;;;;;5038770;28;20627;-81
2021/04/11 05:01:26;;;;;;;35.33;26.43;;;8.70;99.90;;;;;;5035891;28;20218;-80
2021/04/11 05:03:59;;;;;;;34.73;25.83;;;8.70;99.90;;;;;;5033372;28;20281;-81
2021/04/11 05:06:29;;;;;;;35.37;26.30;;;8.80;99.90;;;;;;5034022;28;20203;-81
2021/04/11 05:09:02;;;;;;;35.60;25.00;;;8.70;99.90;;;;;;5041638;28;20221;-81
2021/04/11 05:11:32;;;;;;;35.07;25.83;;;8.70;99.90;;;;;;5048181;28;20218;-82
2021/04/11 05:14:04;;;;;;;38.00;26.00;;;8.80;99.90;;;;;;5047058;28;20219;-81
2021/04/11 05:16:36;;;;;;;35.23;25.20;;;8.90;99.90;;;;;;5049549;28;20203;-80
2021/04/11 05:19:07;;;;;;;38.57;26.77;;;8.90;99.90;;;;;;5035283;28;20200;-80
2021/04/11 05:21:37;;;;;;;35.47;25.57;;;9.00;99.90;;;;;;5041946;28;20349;-79
2021/04/11 05:24:09;;;;;;;35.43;24.53;;;9.00;99.90;;;;;;5044755;28;20222;-79
2021/04/11 05:26:42;;;;;;;36.17;25.73;;;9.10;99.90;;;;;;5042581;28;20215;-80
2021/04/11 05:29:17;;;;;;;34.03;24.17;;;9.10;99.90;;;;;;5041848;28;20221;-80
2021/04/11 05:31:45;;;;;;;35.27;23.83;;;9.10;99.90;;;;;;5045534;28;20690;-80
2021/04/11 05:34:14;;;;;;;33.00;23.63;;;9.10;99.90;;;;;;5044225;28;20231;-80
2021/04/11 05:37:01;;;;;;;35.10;23.90;;;9.10;99.90;;;;;;5046136;28;20310;-79
2021/04/11 05:39:38;;;;;;;32.47;24.13;;;9.10;99.90;;;;;;5045490;28;20218;-80
2021/04/11 05:42:11;;;;;;;31.13;22.83;;;9.10;99.90;;;;;;5042387;28;20220;-80
2021/04/11 05:44:44;;;;;;;33.07;23.23;;;9.10;99.90;;;;;;5043286;28;20233;-79
2021/04/11 05:47:18;;;;;;;31.57;23.87;;;9.20;99.90;;;;;;5045569;28;20302;-79
2021/04/11 05:49:51;;;;;;;30.50;22.10;;;9.20;99.90;;;;;;5046823;28;20212;-80
2021/04/11 05:52:22;;;;;;;32.80;23.73;;;9.20;99.90;;;;;;5045958;28;20225;-80
2021/04/11 05:54:51;;;;;;;34.43;25.60;;;9.20;99.90;;;;;;5040462;28;20223;-79
2021/04/11 05:57:24;;;;;;;30.80;22.53;;;9.20;99.90;;;;;;5042781;28;20215;-79
2021/04/11 05:59:55;;;;;;;31.57;22.63;;;9.20;99.90;;;;;;5045228;28;20202;-79
2021/04/11 06:02:28;;;;;;;29.93;22.40;;;9.30;99.90;;;;;;5044233;28;20207;-80
2021/04/11 06:05:00;;;;;;;34.30;22.73;;;9.20;99.90;;;;;;5039198;28;20970;-80
2021/04/11 06:07:31;;;;;;;29.57;21.87;;;9.20;99.90;;;;;;5045033;28;20210;-80
2021/04/11 06:10:02;;;;;;;30.80;22.63;;;9.20;99.90;;;;;;5044901;28;20593;-81
2021/04/11 06:12:35;;;;;;;30.43;21.83;;;9.20;99.90;;;;;;5044746;28;20222;-80
2021/04/11 06:15:07;;;;;;;29.53;20.00;;;9.20;99.90;;;;;;5045687;28;20247;-79
2021/04/11 06:17:34;;;;;;;29.80;20.60;;;9.20;99.90;;;;;;5045011;28;20211;-80
2021/04/11 06:20:02;;;;;;;28.90;21.77;;;9.20;99.90;;;;;;5044785;28;20409;-80
2021/04/11 06:22:35;;;;;;;30.73;21.30;;;9.20;99.90;;;;;;5044056;28;20255;-80
2021/04/11 06:25:12;;;;;;;33.63;28.20;;;9.20;99.90;;;;;;5044882;28;20602;-80
2021/04/11 06:27:45;;;;;;;29.90;23.50;;;9.30;99.90;;;;;;5043247;28;20232;-81
2021/04/11 06:30:15;;;;;;;30.47;23.00;;;9.40;99.90;;;;;;5039585;28;20730;-80
2021/04/11 06:32:47;;;;;;;26.67;20.27;;;9.40;99.90;;;;;;5045334;28;20633;-80
2021/04/11 06:35:17;;;;;;;29.20;21.10;;;9.40;99.90;;;;;;5046005;28;20690;-80
2021/04/11 06:37:46;;;;;;;30.00;20.27;;;9.40;99.90;;;;;;5041654;28;20218;-81
2021/04/11 06:40:27;;;;;;;27.43;20.07;;;9.50;99.90;;;;;;5046655;28;20264;-80
2021/04/11 06:43:08;;;;;;;31.03;21.53;;;9.50;99.90;;;;;;5035122;28;20295;-80
2021/04/11 06:45:38;;;;;;;29.67;21.77;;;9.50;99.90;;;;;;5046798;28;20698;-79
2021/04/11 06:48:36;;;;;;;32.20;23.53;;;9.60;99.90;;;;;;5039777;28;20426;-80
2021/04/11 06:51:48;;;;;;;31.60;23.67;;;9.60;99.90;;;;;;5046228;28;20203;-80
2021/04/11 06:54:56;;;;;;;55.23;40.27;;;9.80;99.90;;;;;;5042427;28;20310;-80
2021/04/11 06:57:29;;;;;;;30.93;21.77;;;9.90;99.90;;;;;;5024910;28;20663;-81
2021/04/11 07:00:05;;;;;;;29.57;21.63;;;10.10;99.90;;;;;;5046004;28;20242;-82
2021/04/11 07:03:22;;;;;;;30.23;22.00;;;10.00;99.90;;;;;;5050700;28;20248;-81
2021/04/11 07:06:13;;;;;;;27.13;19.83;;;10.10;99.90;;;;;;5048582;28;20229;-81
2021/04/11 07:08:58;;;;;;;28.93;19.40;;;10.10;99.90;;;;;;5022449;28;20282;-80
2021/04/11 07:11:49;;;;;;;28.37;20.13;;;10.20;99.90;;;;;;5047724;28;20199;-81
2021/04/11 07:14:51;;;;;;;27.00;19.27;;;10.30;99.90;;;;;;5051651;28;20237;-81
2021/04/11 07:17:50;;;;;;;26.27;19.07;;;10.40;99.90;;;;;;5037005;28;20630;-82
2021/04/11 07:20:40;;;;;;;24.80;17.80;;;10.50;99.90;;;;;;5044369;28;20207;-81
2021/04/11 07:24:01;;;;;;;26.73;18.90;;;10.50;99.90;;;;;;5051028;28;20227;-81
2021/04/11 07:26:48;;;;;;;24.57;17.33;;;10.50;99.90;;;;;;5036533;28;20226;-81
2021/04/11 07:29:32;;;;;;;24.77;17.97;;;10.40;99.90;;;;;;5046837;28;20294;-81
2021/04/11 07:32:23;;;;;;;24.07;17.30;;;10.50;99.90;;;;;;5052441;28;20201;-81
2021/04/11 07:35:13;;;;;;;27.70;17.33;;;10.50;99.90;;;;;;5052840;28;20619;-82
2021/04/11 07:38:05;;;;;;;23.23;16.60;;;10.50;99.90;;;;;;5051566;28;20213;-81
2021/04/11 07:40:43;;;;;;;22.33;16.57;;;10.50;99.90;;;;;;5053823;28;20598;-81
2021/04/11 07:43:24;;;;;;;25.63;18.47;;;10.60;99.90;;;;;;5052769;28;20227;-81
2021/04/11 07:46:23;;;;;;;24.17;20.00;;;10.60;99.90;;;;;;5048173;28;20192;-81
2021/04/11 07:49:04;;;;;;;23.93;18.37;;;10.60;99.90;;;;;;5042110;28;20225;-80
2021/04/11 07:51:51;;;;;;;25.90;19.93;;;10.60;99.90;;;;;;5047026;28;20199;-82
2021/04/11 07:54:42;;;;;;;24.47;19.80;;;10.70;99.90;;;;;;5052093;28;20291;-81
2021/04/11 07:57:29;;;;;;;25.67;18.20;;;10.60;99.90;;;;;;5055054;28;20650;-81
2021/04/11 08:00:17;;;;;;;23.10;17.27;;;10.60;99.90;;;;;;5044522;28;20286;-81
2021/04/11 08:03:19;;;;;;;23.20;17.33;;;10.60;99.90;;;;;;5044686;28;20656;-80
2021/04/11 08:06:08;;;;;;;23.30;16.13;;;10.60;99.90;;;;;;5004725;28;20251;-81
2021/04/11 08:09:01;;;;;;;23.83;17.30;;;10.80;99.90;;;;;;5052998;28;20203;-80
2021/04/11 08:12:10;;;;;;;24.27;16.47;;;10.80;99.90;;;;;;5054637;28;20494;-80
2021/04/11 08:14:46;;;;;;;21.50;15.20;;;10.80;99.90;;;;;;4981788;28;20233;-80
2021/04/11 08:17:35;;;;;;;20.80;14.13;;;10.90;99.90;;;;;;5051967;28;20211;-80
2021/04/11 08:20:25;;;;;;;22.37;15.77;;;10.90;99.90;;;;;;5051660;28;20191;-80
2021/04/11 08:23:11;;;;;;;20.77;14.83;;;10.90;99.90;;;;;;5044918;28;20192;-81
2021/04/11 08:25:42;;;;;;;20.67;14.00;;;11.00;99.90;;;;;;5040583;28;20298;-80
2021/04/11 08:28:38;;;;;;;20.57;14.23;;;11.00;99.90;;;;;;5052737;28;20195;-81
2021/04/11 08:31:29;;;;;;;25.53;18.03;;;11.10;99.90;;;;;;5037070;28;20214;-80
2021/04/11 08:34:17;;;;;;;24.63;15.80;;;11.00;99.90;;;;;;5050796;28;20234;-81
2021/04/11 08:37:18;;;;;;;22.97;16.13;;;11.00;99.90;;;;;;5048172;28;20222;-80
2021/04/11 08:39:58;;;;;;;22.07;15.33;;;11.10;99.90;;;;;;5053376;28;20198;-79
2021/04/11 08:42:51;;;;;;;25.23;18.03;;;11.10;99.90;;;;;;5044570;28;20286;-80
2021/04/11 08:45:29;;;;;;;20.23;14.90;;;11.00;99.90;;;;;;5055048;28;20269;-80
2021/04/11 08:48:11;;;;;;;26.13;17.07;;;11.00;99.90;;;;;;5054370;28;20274;-79
2021/04/11 08:50:46;;;;;;;19.37;13.47;;;11.00;99.90;;;;;;5053582;28;20603;-79
2021/04/11 08:53:29;;;;;;;18.60;12.43;;;11.00;99.90;;;;;;5054610;28;20226;-79
2021/04/11 08:56:04;;;;;;;17.40;12.80;;;11.10;99.90;;;;;;5049512;28;20211;-79
2021/04/11 08:58:39;;;;;;;17.10;11.83;;;11.10;99.90;;;;;;5051085;28;20198;-82
2021/04/11 09:01:19;;;;;;;16.50;11.93;;;11.20;99.90;;;;;;5050333;28;20203;-80
2021/04/11 09:04:05;;;;;;;17.43;11.87;;;11.30;99.90;;;;;;5043067;28;20649;-81
2021/04/11 09:06:43;;;;;;;16.00;9.60;;;11.40;99.90;;;;;;5051200;28;20289;-81
2021/04/11 09:09:27;;;;;;;14.10;9.33;;;11.30;99.90;;;;;;5051113;28;20667;-81
2021/04/11 09:12:04;;;;;;;12.23;9.10;;;11.40;99.90;;;;;;5054381;28;20195;-81
2021/04/11 09:14:41;;;;;;;13.03;9.07;;;11.50;99.90;;;;;;5046164;28;20226;-79
2021/04/11 09:17:19;;;;;;;11.37;8.20;;;11.40;99.90;;;;;;5048479;28;20669;-80
2021/04/11 09:19:55;;;;;;;12.30;8.67;;;11.30;99.90;;;;;;5049386;28;20199;-80
2021/04/11 09:22:33;;;;;;;13.80;8.93;;;11.30;99.90;;;;;;5048570;28;20211;-79
2021/04/11 09:25:05;;;;;;;16.50;10.50;;;11.20;99.90;;;;;;5052983;28;20227;-80
2021/04/11 09:28:15;;;;;;;17.17;11.43;;;11.20;99.90;;;;;;5050668;28;20245;-79
2021/04/11 09:31:11;;;;;;;14.10;9.57;;;11.00;99.90;;;;;;5044333;28;20253;-81
2021/04/11 09:34:09;;;;;;;10.47;7.87;;;10.90;99.90;;;;;;5027108;28;20237;-80
2021/04/11 09:36:45;;;;;;;9.87;6.97;;;10.80;99.90;;;;;;5051336;28;20350;-80
2021/04/11 09:39:30;;;;;;;8.87;5.80;;;10.80;99.90;;;;;;5047138;28;20450;-82
2021/04/11 09:42:32;;;;;;;7.33;5.97;;;10.90;99.90;;;;;;5051139;28;20256;-81
2021/04/11 09:45:12;;;;;;;8.77;5.93;;;10.90;99.90;;;;;;5039507;28;20743;-81
2021/04/11 09:47:53;;;;;;;7.97;5.50;;;10.90;99.90;;;;;;5052201;28;20218;-81
2021/04/11 09:50:42;;;;;;;5.60;4.30;;;10.80;99.90;;;;;;5052257;28;20203;-81
2021/04/11 09:53:36;;;;;;;6.57;4.67;;;10.80;99.90;;;;;;5046929;28;20223;-81
2021/04/11 09:56:14;;;;;;;4.67;4.20;;;10.80;99.90;;;;;;5049599;28;20199;-81
2021/04/11 09:59:13;;;;;;;4.20;3.80;;;10.90;99.90;;;;;;5053915;28;20218;-82
2021/04/11 10:01:47;;;;;;;4.23;3.80;;;10.90;99.90;;;;;;5040856;28;20804;-81
2021/04/11 10:04:46;;;;;;;4.20;3.80;;;10.80;99.90;;;;;;5051360;28;20496;-81
2021/04/11 10:07:56;;;;;;;5.37;3.70;;;10.80;99.90;;;;;;5039585;28;20215;-82
2021/04/11 10:10:33;;;;;;;4.57;4.07;;;10.80;99.90;;;;;;4996021;28;20221;-80
2021/04/11 10:13:27;;;;;;;5.53;3.97;;;10.70;99.90;;;;;;5048436;28;21321;-82
2021/04/11 10:16:06;;;;;;;6.63;5.00;;;10.60;99.90;;;;;;5028406;28;20206;-81
2021/04/11 10:18:49;;;;;;;5.07;4.33;;;10.60;99.90;;;;;;5053102;28;20663;-80
2021/04/11 10:21:24;;;;;;;8.57;5.50;;;10.50;99.90;;;;;;5046889;28;20209;-81
2021/04/11 10:24:06;;;;;;;5.53;5.00;;;10.50;99.90;;;;;;5042997;28;20581;-81
2021/04/11 10:26:40;;;;;;;6.67;5.40;;;10.50;99.90;;;;;;5050029;28;20210;-81
2021/04/11 10:29:12;;;;;;;9.37;6.20;;;10.50;99.90;;;;;;5051080;28;20715;-80
2021/04/11 10:31:44;;;;;;;7.57;6.13;;;10.40;99.90;;;;;;5052263;28;20214;-82
2021/04/11 10:34:18;;;;;;;6.80;5.57;;;10.40;99.90;;;;;;5049127;28;20253;-80
2021/04/11 10:36:49;;;;;;;5.77;4.57;;;10.40;99.90;;;;;;5051747;28;20214;-82
2021/04/11 10:39:24;;;;;;;6.27;4.73;;;10.40;99.90;;;;;;5045536;28;20578;-83
2021/04/11 10:42:15;;;;;;;5.03;3.90;;;10.40;99.90;;;;;;5050035;28;20292;-82
2021/04/11 10:44:59;;;;;;;7.60;4.70;;;10.50;99.90;;;;;;5051237;28;20225;-82
2021/04/11 10:48:09;;;;;;;5.00;3.93;;;10.60;99.90;;;;;;5051453;28;20211;-82
2021/04/11 10:50:44;;;;;;;4.20;3.77;;;10.60;99.90;;;;;;5044673;28;20580;-82
2021/04/11 10:53:27;;;;;;;5.57;4.00;;;10.80;99.90;;;;;;5047274;28;20222;-81
2021/04/11 10:56:15;;;;;;;6.07;4.40;;;10.80;99.90;;;;;;5051782;28;20195;-82
2021/04/11 10:59:11;;;;;;;5.20;4.70;;;10.90;99.90;;;;;;5050922;28;20245;-82
2021/04/11 11:02:01;;;;;;;5.53;4.70;;;11.10;99.90;;;;;;5051896;28;20203;-81
2021/04/11 11:04:58;;;;;;;8.37;5.50;;;11.20;99.90;;;;;;5048831;28;20587;-81
2021/04/11 11:07:44;;;;;;;7.87;6.43;;;11.10;99.90;;;;;;5052592;28;20218;-81
2021/04/11 11:10:19;;;;;;;8.43;6.57;;;11.00;99.90;;;;;;5049053;28;20208;-82
2021/04/11 11:12:56;;;;;;;8.23;6.23;;;10.90;99.90;;;;;;5050123;28;20289;-82
2021/04/11 11:15:48;;;;;;;7.87;6.33;;;10.60;99.90;;;;;;5050586;28;20678;-81
2021/04/11 11:18:40;;;;;;;8.27;6.70;;;10.10;99.90;;;;;;5049428;28;20612;-82
2021/04/11 11:21:36;;;;;;;11.10;8.27;;;9.90;99.90;;;;;;5051464;28;20631;-81
2021/04/11 11:24:34;;;;;;;10.03;7.77;;;9.90;99.90;;;;;;5051914;28;20683;-81
2021/04/11 11:27:23;;;;;;;10.83;7.57;;;9.70;99.90;;;;;;5054005;28;20286;-82
2021/04/11 11:30:13;;;;;;;10.70;7.93;;;9.70;99.90;;;;;;5056363;28;20207;-86
2021/04/11 11:32:50;;;;;;;13.60;9.03;;;9.40;99.90;;;;;;5053173;28;20571;-80
2021/04/11 11:35:17;;;;;;;12.47;8.50;;;9.40;99.90;;;;;;5054170;28;20325;-80
2021/04/11 11:38:03;;;;;;;11.17;7.97;;;9.40;99.90;;;;;;5054145;28;20264;-80
2021/04/11 11:40:35;;;;;;;11.00;7.87;;;9.40;99.90;;;;;;5043872;28;20210;-80
2021/04/11 11:43:12;;;;;;;12.67;9.17;;;9.30;99.90;;;;;;5045818;28;20200;-79
2021/04/11 11:45:43;;;;;;;11.13;8.27;;;9.20;99.90;;;;;;5052326;28;20565;-80
2021/04/11 11:48:30;;;;;;;13.77;9.47;;;9.20;99.90;;;;;;5046968;28;20229;-79
2021/04/11 11:51:01;;;;;;;13.87;9.13;;;9.10;99.90;;;;;;5054641;28;20614;-80
2021/04/11 11:53:33;;;;;;;14.40;9.40;;;9.10;99.90;;;;;;5055099;28;20238;-80
2021/04/11 11:56:16;;;;;;;15.07;10.23;;;8.80;99.90;;;;;;5053874;28;20202;-80
2021/04/11 11:58:48;;;;;;;14.57;9.20;;;8.80;99.90;;;;;;5052369;28;20686;-81
2021/04/11 12:01:36;;;;;;;15.30;10.00;;;8.50;99.90;;;;;;5052682;28;20205;-81
2021/04/11 12:04:34;;;;;;;15.53;9.73;;;8.50;99.90;;;;;;5050549;28;20755;-80
2021/04/11 12:07:06;;;;;;;14.00;9.17;;;8.40;99.90;;;;;;5048339;28;20206;-82
2021/04/11 12:09:37;;;;;;;14.30;9.40;;;8.60;99.90;;;;;;5047197;28;20617;-81
2021/04/11 12:12:10;;;;;;;14.03;9.20;;;8.50;99.90;;;;;;5048653;28;20252;-81
2021/04/11 12:14:44;;;;;;;14.93;9.60;;;8.40;99.90;;;;;;5049300;28;20223;-82
2021/04/11 12:17:16;;;;;;;17.10;10.30;;;8.30;99.90;;;;;;5047093;28;20203;-80
2021/04/11 12:19:52;;;;;;;15.27;9.60;;;8.40;99.90;;;;;;5046612;28;20333;-81
2021/04/11 12:22:23;;;;;;;14.57;9.30;;;8.20;99.90;;;;;;5047723;28;20228;-80
2021/04/11 12:24:56;;;;;;;17.17;10.33;;;8.10;99.90;;;;;;5049724;28;20258;-80
2021/04/11 12:27:29;;;;;;;14.40;10.27;;;7.90;99.90;;;;;;5049443;28;20207;-80
2021/04/11 12:29:58;;;;;;;19.40;10.63;;;7.90;99.90;;;;;;5047376;28;20199;-78
2021/04/11 12:32:30;;;;;;;16.90;10.23;;;7.90;99.90;;;;;;5049661;28;20656;-80
2021/04/11 12:35:05;;;;;;;16.63;10.47;;;8.00;99.90;;;;;;5051696;28;20305;-80
2021/04/11 12:37:38;;;;;;;17.77;11.20;;;7.80;99.90;;;;;;5045189;28;20245;-80
2021/04/11 12:40:17;;;;;;;19.53;11.33;;;7.70;99.90;;;;;;5053111;28;20203;-81
2021/04/11 12:42:49;;;;;;;17.20;11.10;;;7.60;99.90;;;;;;5037284;28;20323;-79
2021/04/11 12:45:21;;;;;;;17.40;10.53;;;7.60;99.90;;;;;;5051565;28;20317;-81
2021/04/11 12:47:52;;;;;;;15.73;9.67;;;7.40;99.90;;;;;;5051909;28;20675;-81
2021/04/11 12:50:25;;;;;;;14.60;9.40;;;7.30;99.90;;;;;;5045635;28;20757;-80
2021/04/11 12:53:00;;;;;;;16.93;9.87;;;7.20;99.90;;;;;;5043677;28;20629;-81
2021/04/11 12:55:30;;;;;;;13.60;8.60;;;7.20;99.90;;;;;;5051314;28;20190;-80
2021/04/11 12:58:00;;;;;;;12.27;7.77;;;7.10;99.90;;;;;;5052585;28;20188;-79
2021/04/11 13:00:31;;;;;;;13.60;8.33;;;7.20;99.90;;;;;;5048401;28;20623;-79
2021/04/11 13:03:08;;;;;;;12.80;7.50;;;7.10;99.90;;;;;;5049861;28;20207;-79
2021/04/11 13:05:40;;;;;;;13.53;7.67;;;6.90;99.90;;;;;;5052740;28;20290;-79
2021/04/11 13:08:14;;;;;;;12.97;7.80;;;7.00;99.90;;;;;;5052862;28;20635;-80
2021/04/11 13:10:51;;;;;;;13.67;8.07;;;7.00;99.90;;;;;;5055401;28;20206;-82
2021/04/11 13:13:23;;;;;;;14.10;8.13;;;7.00;99.90;;;;;;5052074;28;20679;-78
2021/04/11 13:15:54;;;;;;;15.63;8.90;;;7.10;99.90;;;;;;5052088;28;20191;-81
2021/04/11 13:18:30;;;;;;;13.57;7.70;;;7.00;99.90;;;;;;5049972;28;20611;-77
2021/04/11 13:21:06;;;;;;;10.27;6.47;;;6.60;99.90;;;;;;5050487;28;20284;-81
2021/04/11 13:23:40;;;;;;;10.80;6.47;;;6.70;99.90;;;;;;5050540;28;20305;-82
2021/04/11 13:26:12;;;;;;;10.37;6.30;;;6.60;99.90;;;;;;5048557;28;20682;-80